createdAt,value
2022-09-21T00:01:26.107Z,8.67
2022-09-21T00:04:02.117Z,8.63
2022-09-21T00:06:31.902Z,8.59
2022-09-21T00:08:58.862Z,8.51
2022-09-21T00:11:29.566Z,8.50
2022-09-21T00:14:04.463Z,8.46
2022-09-21T00:16:32.104Z,8.49
2022-09-21T00:19:00.212Z,8.51
2022-09-21T00:21:28.148Z,8.48
2022-09-21T00:23:55.460Z,8.46
2022-09-21T00:26:24.814Z,8.43
2022-09-21T00:28:57.539Z,8.40
2022-09-21T00:31:25.806Z,8.41
2022-09-21T00:33:53.592Z,8.36
2022-09-21T00:36:23.862Z,8.36
2022-09-21T00:38:54.572Z,8.34
2022-09-21T00:41:21.677Z,8.31
2022-09-21T00:44:22.169Z,8.31
2022-09-21T00:46:51.783Z,8.29
2022-09-21T00:49:20.255Z,8.27
2022-09-21T00:51:48.631Z,8.23
2022-09-21T00:54:25.184Z,8.19
2022-09-21T00:56:54.669Z,8.13
2022-09-21T00:59:23.966Z,8.07
2022-09-21T01:01:53.832Z,8.02
2022-09-21T01:04:21.547Z,8.01
2022-09-21T01:06:48.943Z,7.99
2022-09-21T01:09:17.036Z,7.93
2022-09-21T01:12:19.196Z,7.91
2022-09-21T01:15:09.974Z,7.88
2022-09-21T01:18:22.423Z,7.88
2022-09-21T01:21:16.347Z,7.85
2022-09-21T01:24:09.568Z,7.83
2022-09-21T01:27:22.540Z,7.76
2022-09-21T01:30:02.226Z,7.73
2022-09-21T01:32:36.035Z,7.70
2022-09-21T01:35:08.845Z,7.67
2022-09-21T01:37:46.593Z,7.64
2022-09-21T01:40:27.907Z,7.64
2022-09-21T01:42:59.310Z,7.61
2022-09-21T01:45:37.278Z,7.62
2022-09-21T01:48:05.191Z,7.58
2022-09-21T01:50:40.961Z,7.58
2022-09-21T01:53:23.087Z,7.58
2022-09-21T01:55:55.484Z,7.52
2022-09-21T01:58:38.676Z,7.49
2022-09-21T02:01:09.529Z,7.48
2022-09-21T02:03:45.283Z,7.44
2022-09-21T02:06:13.453Z,7.45
2022-09-21T02:08:40.667Z,7.43
2022-09-21T02:11:08.019Z,7.42
2022-09-21T02:13:41.657Z,7.41
2022-09-21T02:16:48.188Z,7.39
2022-09-21T02:19:22.234Z,7.36
2022-09-21T02:21:54.656Z,7.33
2022-09-21T02:24:47.635Z,7.27
2022-09-21T02:27:55.277Z,7.25
2022-09-21T02:30:25.361Z,7.24
2022-09-21T02:33:11.614Z,7.22
2022-09-21T02:35:57.527Z,7.19
2022-09-21T02:38:39.799Z,7.17
2022-09-21T02:41:48.394Z,7.12
2022-09-21T02:44:29.137Z,7.12
2022-09-21T02:47:09.198Z,7.10
2022-09-21T02:49:42.219Z,7.08
2022-09-21T02:52:15.150Z,7.05
2022-09-21T02:54:47.773Z,7.01
2022-09-21T02:57:18.629Z,7.02
2022-09-21T02:59:45.806Z,7.01
2022-09-21T03:02:13.147Z,7.00
2022-09-21T03:04:47.652Z,6.96
2022-09-21T03:07:16.733Z,6.96
2022-09-21T03:09:43.983Z,6.91
2022-09-21T03:12:11.064Z,6.92
2022-09-21T03:14:37.918Z,6.90
2022-09-21T03:17:04.974Z,6.89
2022-09-21T03:19:31.909Z,6.89
2022-09-21T03:21:59.698Z,6.89
2022-09-21T03:24:45.060Z,6.88
2022-09-21T03:27:16.613Z,6.85
2022-09-21T03:29:43.807Z,6.82
2022-09-21T03:32:11.360Z,6.80
2022-09-21T03:34:38.515Z,6.80
2022-09-21T03:37:07.756Z,6.79
2022-09-21T03:39:35.119Z,6.74
2022-09-21T03:42:02.598Z,6.73
2022-09-21T03:44:29.619Z,6.69
2022-09-21T03:46:58.002Z,6.69
2022-09-21T03:49:25.171Z,6.68
2022-09-21T03:51:52.050Z,6.65
2022-09-21T03:54:19.125Z,6.66
2022-09-21T03:56:46.170Z,6.67
2022-09-21T03:59:14.342Z,6.65
2022-09-21T04:01:42.396Z,6.63
2022-09-21T04:04:10.260Z,6.57
2022-09-21T04:06:37.197Z,6.55
2022-09-21T04:09:04.248Z,6.53
2022-09-21T04:11:33.228Z,6.51
2022-09-21T04:14:00.546Z,6.51
2022-09-21T04:16:28.366Z,6.47
2022-09-21T04:18:55.578Z,6.49
2022-09-21T04:21:22.839Z,6.47
2022-09-21T04:23:50.108Z,6.44
2022-09-21T04:26:27.333Z,6.44
2022-09-21T04:28:55.339Z,6.41
2022-09-21T04:31:24.391Z,6.37
2022-09-21T04:33:53.578Z,6.32
2022-09-21T04:36:23.374Z,6.27
2022-09-21T04:38:50.792Z,6.24
2022-09-21T04:41:18.637Z,6.19
2022-09-21T04:43:47.981Z,6.20
2022-09-21T04:46:18.437Z,6.19
2022-09-21T04:48:46.534Z,6.18
2022-09-21T04:51:16.212Z,6.17
2022-09-21T04:53:44.718Z,6.18
2022-09-21T04:56:14.963Z,6.15
2022-09-21T04:58:42.617Z,6.08
2022-09-21T05:01:10.243Z,6.06
2022-09-21T05:03:37.342Z,6.05
2022-09-21T05:06:04.651Z,6.02
2022-09-21T05:08:50.434Z,5.99
2022-09-21T05:11:19.098Z,5.98
2022-09-21T05:13:47.604Z,5.97
2022-09-21T05:16:16.107Z,5.95
2022-09-21T05:18:43.808Z,5.97
2022-09-21T05:21:13.183Z,5.97
2022-09-21T05:23:40.211Z,5.98
2022-09-21T05:26:07.499Z,6.00
2022-09-21T05:28:39.691Z,5.99
2022-09-21T05:31:27.760Z,6.00
2022-09-21T05:34:34.253Z,6.02
2022-09-21T05:37:23.514Z,6.04
2022-09-21T05:39:50.756Z,6.07
2022-09-21T05:42:17.906Z,6.06
2022-09-21T05:44:45.231Z,6.11
2022-09-21T05:47:38.643Z,6.18
2022-09-21T05:50:39.181Z,6.23
2022-09-21T05:53:44.131Z,6.26
2022-09-21T05:56:11.100Z,6.29
2022-09-21T05:59:11.812Z,6.38
2022-09-21T06:02:12.017Z,6.44
2022-09-21T06:04:39.339Z,6.60
2022-09-21T06:07:06.258Z,6.73
2022-09-21T06:09:33.336Z,6.86
2022-09-21T06:12:00.222Z,7.02
2022-09-21T06:14:27.341Z,7.19
2022-09-21T06:16:54.266Z,7.39
2022-09-21T06:19:21.281Z,7.61
2022-09-21T06:21:48.180Z,7.77
2022-09-21T06:24:15.105Z,7.93
2022-09-21T06:26:42.943Z,8.12
2022-09-21T06:29:09.900Z,8.31
2022-09-21T06:31:37.183Z,8.50
2022-09-21T06:34:04.126Z,8.70
2022-09-21T06:36:31.141Z,8.93
2022-09-21T06:38:58.125Z,9.14
2022-09-21T06:41:25.293Z,9.29
2022-09-21T06:43:58.139Z,9.53
2022-09-21T06:46:25.291Z,9.77
2022-09-21T06:48:52.152Z,9.97
2022-09-21T06:51:20.926Z,10.19
2022-09-21T06:53:48.631Z,10.40
2022-09-21T06:56:16.058Z,10.56
2022-09-21T06:58:42.961Z,10.73
2022-09-21T07:01:13.263Z,10.86
2022-09-21T07:03:42.132Z,10.95
2022-09-21T07:06:15.652Z,10.95
2022-09-21T07:11:31.045Z,10.99
2022-09-21T07:13:58.569Z,11.06
2022-09-21T07:16:25.541Z,11.12
2022-09-21T07:18:52.441Z,11.22
2022-09-21T07:21:19.662Z,11.39
2022-09-21T07:23:46.519Z,11.62
2022-09-21T07:26:14.223Z,11.89
2022-09-21T07:28:41.602Z,12.15
2022-09-21T07:31:16.912Z,12.36
2022-09-21T07:33:47.058Z,12.45
2022-09-21T07:36:14.449Z,12.52
2022-09-21T07:38:44.143Z,12.59
2022-09-21T07:41:14.743Z,12.72
2022-09-21T07:43:41.934Z,12.92
2022-09-21T07:46:12.454Z,13.10
2022-09-21T07:48:39.773Z,13.31
2022-09-21T07:51:11.072Z,13.50
2022-09-21T07:53:40.887Z,13.56
2022-09-21T07:56:12.469Z,13.50
2022-09-21T07:58:58.830Z,13.48
2022-09-21T08:01:27.572Z,13.47
2022-09-21T08:03:57.719Z,13.46
2022-09-21T08:06:27.926Z,13.56
2022-09-21T08:08:57.656Z,13.79
2022-09-21T08:11:27.566Z,14.16
2022-09-21T08:14:04.310Z,14.38
2022-09-21T08:16:33.900Z,14.70
2022-09-21T08:19:02.199Z,15.04
2022-09-21T08:21:29.127Z,15.31
2022-09-21T08:23:56.009Z,15.53
2022-09-21T08:26:23.843Z,15.75
2022-09-21T08:28:53.185Z,15.93
2022-09-21T08:31:24.407Z,16.06
2022-09-21T08:33:52.239Z,16.14
2022-09-21T08:36:19.758Z,16.35
2022-09-21T08:38:46.885Z,16.62
2022-09-21T08:41:38.676Z,16.89
2022-09-21T08:44:24.196Z,16.90
2022-09-21T08:47:39.094Z,16.98
2022-09-21T08:50:37.861Z,17.20
2022-09-21T08:53:12.845Z,17.26
2022-09-21T08:55:39.807Z,17.42
2022-09-21T08:58:25.837Z,17.74
2022-09-21T09:01:19.887Z,18.00
2022-09-21T09:04:46.147Z,18.18
2022-09-21T09:08:03.948Z,18.39
2022-09-21T09:10:39.560Z,18.55
2022-09-21T09:13:09.284Z,18.60
2022-09-21T09:15:57.477Z,18.61
2022-09-21T09:18:43.936Z,18.79
2022-09-21T09:21:30.536Z,19.03
2022-09-21T09:24:37.095Z,19.24
2022-09-21T09:27:15.324Z,19.33
2022-09-21T09:30:03.216Z,19.23
2022-09-21T09:32:44.709Z,19.25
2022-09-21T09:35:33.335Z,19.38
2022-09-21T09:38:34.764Z,19.49
2022-09-21T09:41:45.102Z,19.47
2022-09-21T09:44:35.875Z,19.73
2022-09-21T09:47:39.282Z,20.10
2022-09-21T09:50:27.729Z,20.34
2022-09-21T09:53:05.044Z,20.65
2022-09-21T09:55:43.663Z,20.88
2022-09-21T09:58:26.407Z,20.96
2022-09-21T10:00:57.619Z,20.81
2022-09-21T10:03:28.206Z,20.71
2022-09-21T10:05:55.678Z,20.66
2022-09-21T10:08:44.626Z,20.88
2022-09-21T10:11:14.547Z,21.23
2022-09-21T10:13:48.282Z,21.67
2022-09-21T10:16:21.769Z,22.07
2022-09-21T10:18:56.508Z,22.14
2022-09-21T10:21:27.216Z,22.21
2022-09-21T10:24:30.049Z,22.25
2022-09-21T10:27:11.655Z,22.43
2022-09-21T10:29:48.773Z,22.49
2022-09-21T10:32:18.468Z,22.50
2022-09-21T10:35:16.312Z,22.67
2022-09-21T10:37:48.388Z,22.90
2022-09-21T10:40:21.419Z,23.05
2022-09-21T10:42:51.670Z,22.54
2022-09-21T10:45:21.998Z,22.04
2022-09-21T10:48:06.186Z,21.24
2022-09-21T10:50:44.084Z,20.80
2022-09-21T10:53:20.263Z,20.73
2022-09-21T10:56:18.049Z,20.99
2022-09-21T10:59:19.633Z,21.33
2022-09-21T11:01:50.089Z,21.27
2022-09-21T11:04:47.580Z,21.13
2022-09-21T11:07:58.183Z,21.01
2022-09-21T11:10:44.421Z,20.95
2022-09-21T11:13:44.638Z,20.67
2022-09-21T11:16:43.184Z,20.38
2022-09-21T11:19:27.983Z,20.21
2022-09-21T11:22:15.288Z,20.54
2022-09-21T11:25:00.684Z,21.00
2022-09-21T11:27:44.998Z,21.30
2022-09-21T11:30:20.031Z,21.62
2022-09-21T11:33:02.916Z,21.61
2022-09-21T11:35:47.474Z,21.52
2022-09-21T11:39:06.982Z,21.29
2022-09-21T11:42:25.138Z,21.22
2022-09-21T11:44:56.170Z,21.06
2022-09-21T11:47:48.703Z,21.07
2022-09-21T11:50:57.425Z,21.46
2022-09-21T11:53:52.027Z,21.93
2022-09-21T11:56:48.271Z,22.17
2022-09-21T11:59:21.138Z,22.18
2022-09-21T12:02:22.297Z,22.03
2022-09-21T12:05:13.405Z,22.05
2022-09-21T12:07:57.087Z,22.05
2022-09-21T12:10:58.814Z,21.69
2022-09-21T12:13:33.995Z,21.33
2022-09-21T12:16:32.786Z,21.03
2022-09-21T12:19:51.802Z,20.66
2022-09-21T12:22:26.898Z,20.42
2022-09-21T12:25:17.583Z,20.31
2022-09-21T12:28:07.344Z,20.30
2022-09-21T12:30:37.629Z,20.26
2022-09-21T12:33:20.151Z,20.20
2022-09-21T12:35:56.426Z,20.07
2022-09-21T12:38:34.722Z,19.99
2022-09-21T12:41:23.641Z,20.03
2022-09-21T12:44:02.846Z,20.07
2022-09-21T12:46:53.409Z,20.04
2022-09-21T12:49:30.507Z,19.97
2022-09-21T12:52:03.306Z,19.82
2022-09-21T12:54:38.125Z,19.76
2022-09-21T12:57:29.767Z,19.78
2022-09-21T13:00:11.753Z,19.94
2022-09-21T13:03:08.347Z,19.87
2022-09-21T13:05:56.403Z,19.71
2022-09-21T13:08:33.563Z,19.93
2022-09-21T13:11:05.833Z,20.00
2022-09-21T13:13:43.691Z,20.06
2022-09-21T13:16:26.554Z,20.00
2022-09-21T13:19:12.799Z,19.88
2022-09-21T13:21:40.390Z,20.13
2022-09-21T13:24:26.109Z,20.67
2022-09-21T13:26:57.158Z,21.30
2022-09-21T13:29:24.967Z,21.88
2022-09-21T13:32:03.778Z,22.40
2022-09-21T13:34:42.561Z,22.75
2022-09-21T13:37:15.817Z,23.00
2022-09-21T13:40:04.127Z,23.18
2022-09-21T13:42:34.379Z,23.21
2022-09-21T13:45:24.608Z,23.20
2022-09-21T13:47:55.780Z,23.33
2022-09-21T13:50:42.955Z,23.58
2022-09-21T13:53:30.477Z,23.78
2022-09-21T13:56:08.980Z,23.93
2022-09-21T13:58:50.390Z,23.72
2022-09-21T14:01:45.611Z,22.96
2022-09-21T14:04:25.519Z,22.42
2022-09-21T14:06:55.723Z,22.39
2022-09-21T14:09:35.143Z,22.68
2022-09-21T14:12:06.416Z,22.68
2022-09-21T14:14:37.537Z,22.60
2022-09-21T14:17:34.073Z,22.41
2022-09-21T14:20:01.315Z,22.21
2022-09-21T14:22:28.068Z,22.28
2022-09-21T14:25:28.988Z,22.49
2022-09-21T14:28:03.635Z,22.57
2022-09-21T14:30:34.706Z,22.55
2022-09-21T14:33:08.343Z,22.37
2022-09-21T14:35:42.096Z,21.96
2022-09-21T14:38:22.218Z,21.85
2022-09-21T14:40:53.251Z,21.98
2022-09-21T14:43:36.035Z,22.32
2022-09-21T14:46:40.447Z,22.68
2022-09-21T14:49:30.174Z,22.96
2022-09-21T14:52:25.044Z,23.07
2022-09-21T14:55:47.615Z,22.99
2022-09-21T14:58:30.019Z,22.92
2022-09-21T15:01:20.057Z,23.02
2022-09-21T15:04:33.194Z,23.06
2022-09-21T15:07:52.962Z,23.00
2022-09-21T15:10:49.704Z,23.05
2022-09-21T15:13:43.197Z,22.98
2022-09-21T15:16:39.180Z,23.00
2022-09-21T15:19:37.346Z,22.91
2022-09-21T15:22:22.552Z,22.89
2022-09-21T15:24:57.174Z,22.80
2022-09-21T15:27:33.331Z,22.74
2022-09-21T15:30:05.203Z,22.64
2022-09-21T15:32:43.842Z,22.47
2022-09-21T15:35:29.400Z,22.31
2022-09-21T15:38:02.051Z,22.25
2022-09-21T15:40:46.653Z,22.28
2022-09-21T15:43:17.015Z,22.27
2022-09-21T15:45:57.074Z,22.21
2022-09-21T15:48:35.866Z,22.05
2022-09-21T15:51:23.389Z,21.83
2022-09-21T15:53:58.143Z,21.73
2022-09-21T15:56:28.625Z,21.68
2022-09-21T15:59:08.763Z,21.57
2022-09-21T16:01:55.155Z,21.33
2022-09-21T16:04:27.549Z,21.19
2022-09-21T16:07:04.103Z,21.12
2022-09-21T16:09:43.594Z,21.03
2022-09-21T16:12:41.216Z,21.04
2022-09-21T16:15:32.111Z,21.04
2022-09-21T16:18:05.253Z,20.98
2022-09-21T16:20:48.372Z,20.82
2022-09-21T16:23:23.169Z,20.74
2022-09-21T16:25:58.497Z,20.69
2022-09-21T16:28:44.055Z,20.66
2022-09-21T16:31:40.452Z,20.66
2022-09-21T16:34:23.308Z,20.64
2022-09-21T16:36:52.875Z,20.61
2022-09-21T16:39:21.034Z,20.52
2022-09-21T16:41:53.810Z,20.45
2022-09-21T16:44:25.470Z,20.37
2022-09-21T16:47:01.534Z,20.24
2022-09-21T16:49:33.551Z,20.15
2022-09-21T16:52:01.445Z,19.95
2022-09-21T16:54:29.697Z,19.74
2022-09-21T16:57:00.193Z,19.57
2022-09-21T16:59:28.068Z,19.38
2022-09-21T17:01:58.376Z,19.23
2022-09-21T17:04:31.027Z,19.09
2022-09-21T17:06:58.517Z,18.94
2022-09-21T17:09:32.030Z,18.78
2022-09-21T17:12:01.390Z,18.64
2022-09-21T17:14:37.838Z,18.51
2022-09-21T17:17:23.151Z,18.33
2022-09-21T17:19:52.899Z,18.16
2022-09-21T17:22:20.223Z,18.04
2022-09-21T17:24:52.085Z,17.91
2022-09-21T17:27:29.059Z,17.71
2022-09-21T17:29:56.504Z,17.59
2022-09-21T17:32:24.678Z,17.51
2022-09-21T17:35:28.765Z,17.40
2022-09-21T17:37:55.802Z,17.30
2022-09-21T17:40:24.125Z,17.14
2022-09-21T17:42:52.779Z,16.99
2022-09-21T17:45:35.974Z,16.86
2022-09-21T17:48:03.606Z,16.75
2022-09-21T17:50:31.580Z,16.65
2022-09-21T17:53:17.867Z,16.54
2022-09-21T17:55:54.339Z,16.45
2022-09-21T17:58:45.447Z,16.35
2022-09-21T18:01:36.253Z,16.20
2022-09-21T18:04:04.712Z,16.10
2022-09-21T18:06:32.351Z,15.98
2022-09-21T18:08:59.717Z,15.97
2022-09-21T18:11:47.879Z,15.95
2022-09-21T18:14:35.761Z,15.90
2022-09-21T18:17:45.017Z,15.77
2022-09-21T18:21:02.386Z,15.63
2022-09-21T18:24:13.588Z,15.46
2022-09-21T18:26:44.446Z,15.33
2022-09-21T18:29:39.345Z,15.19
2022-09-21T18:32:36.381Z,15.09
2022-09-21T18:35:14.958Z,14.98
2022-09-21T18:38:12.941Z,14.95
2022-09-21T18:40:55.759Z,14.93
2022-09-21T18:43:28.533Z,14.91
2022-09-21T18:46:15.479Z,14.78
2022-09-21T18:49:13.379Z,14.64
2022-09-21T18:51:57.488Z,14.44
2022-09-21T18:54:27.477Z,14.34
2022-09-21T18:56:55.502Z,14.29
2022-09-21T18:59:23.090Z,14.19
2022-09-21T19:01:50.816Z,14.17
2022-09-21T19:04:19.191Z,14.18
2022-09-21T19:07:00.737Z,14.12
2022-09-21T19:09:56.849Z,14.02
2022-09-21T19:13:09.355Z,13.95
2022-09-21T19:16:00.275Z,13.90
2022-09-21T19:18:46.404Z,13.84
2022-09-21T19:21:30.605Z,13.80
2022-09-21T19:24:39.138Z,13.80
2022-09-21T19:27:37.035Z,13.72
2022-09-21T19:30:17.105Z,13.66
2022-09-21T19:32:53.017Z,13.54
2022-09-21T19:35:25.988Z,13.44
2022-09-21T19:37:56.229Z,13.36
2022-09-21T19:40:27.311Z,13.32
2022-09-21T19:43:32.926Z,13.26
2022-09-21T19:46:27.277Z,13.12
2022-09-21T19:49:01.443Z,12.92
2022-09-21T19:51:50.599Z,12.80
2022-09-21T19:54:40.620Z,12.73
2022-09-21T19:57:37.790Z,12.62
2022-09-21T20:00:09.187Z,12.46
2022-09-21T20:03:14.123Z,12.35
2022-09-21T20:05:57.098Z,12.23
2022-09-21T20:09:11.561Z,12.14
2022-09-21T20:11:51.047Z,12.14
2022-09-21T20:14:37.645Z,12.02
2022-09-21T20:17:09.860Z,11.99
2022-09-21T20:19:57.138Z,11.99
2022-09-21T20:22:35.840Z,12.04
2022-09-21T20:25:09.161Z,12.12
2022-09-21T20:27:53.339Z,12.13
2022-09-21T20:30:26.635Z,12.13
2022-09-21T20:33:03.529Z,12.12
2022-09-21T20:35:31.058Z,12.06
2022-09-21T20:38:02.248Z,12.05
2022-09-21T20:40:30.052Z,12.02
2022-09-21T20:42:58.360Z,12.01
2022-09-21T20:45:25.832Z,11.96
2022-09-21T20:47:54.839Z,11.90
2022-09-21T20:50:23.560Z,11.85
2022-09-21T20:52:50.696Z,11.80
2022-09-21T20:55:20.225Z,11.74
2022-09-21T20:57:47.816Z,11.69
2022-09-21T21:00:16.606Z,11.64
2022-09-21T21:02:43.865Z,11.59
2022-09-21T21:05:11.377Z,11.58
2022-09-21T21:07:42.347Z,11.55
2022-09-21T21:10:13.395Z,11.51
2022-09-21T21:12:44.393Z,11.50
2022-09-21T21:15:12.557Z,11.44
2022-09-21T21:17:41.158Z,11.38
2022-09-21T21:20:09.747Z,11.33
2022-09-21T21:22:37.033Z,11.25
2022-09-21T21:25:04.789Z,11.17
2022-09-21T21:27:31.996Z,11.15
2022-09-21T21:30:00.197Z,11.14
2022-09-21T21:32:28.218Z,11.18
2022-09-21T21:34:55.899Z,11.10
2022-09-21T21:37:25.434Z,11.02
2022-09-21T21:39:54.031Z,10.95
2022-09-21T21:42:21.817Z,10.94
2022-09-21T21:44:52.155Z,10.94
2022-09-21T21:50:06.612Z,10.86
2022-09-21T21:52:34.269Z,10.84
2022-09-21T21:55:02.282Z,10.77
2022-09-21T21:57:29.216Z,10.71
2022-09-21T21:59:56.185Z,10.69
2022-09-21T22:02:23.852Z,10.64
2022-09-21T22:04:50.857Z,10.60
2022-09-21T22:07:17.735Z,10.57
2022-09-21T22:09:44.719Z,10.56
2022-09-21T22:12:11.893Z,10.57
2022-09-21T22:14:39.046Z,10.58
2022-09-21T22:17:05.956Z,10.54
2022-09-21T22:19:32.979Z,10.50
2022-09-21T22:22:00.125Z,10.47
2022-09-21T22:24:27.187Z,10.47
2022-09-21T22:26:54.085Z,10.41
2022-09-21T22:29:21.102Z,10.34
2022-09-21T22:31:50.555Z,10.30
2022-09-21T22:34:17.715Z,10.25
2022-09-21T22:36:45.000Z,10.22
2022-09-21T22:39:12.850Z,10.17
2022-09-21T22:41:42.225Z,10.11
2022-09-21T22:44:10.231Z,10.04
2022-09-21T22:46:37.959Z,10.04
2022-09-21T22:49:05.406Z,9.97
2022-09-21T22:51:32.835Z,9.97
2022-09-21T22:54:01.444Z,9.91
2022-09-21T22:56:31.728Z,9.91
2022-09-21T22:59:00.721Z,9.88
2022-09-21T23:01:39.060Z,9.85
2022-09-21T23:04:12.855Z,9.78
2022-09-21T23:06:43.554Z,9.64
2022-09-21T23:09:18.457Z,9.47
2022-09-21T23:11:48.620Z,9.37
2022-09-21T23:14:16.890Z,9.27
2022-09-21T23:16:44.971Z,9.28
2022-09-21T23:19:15.791Z,9.29
2022-09-21T23:21:51.500Z,9.29
2022-09-21T23:24:19.691Z,9.29
2022-09-21T23:26:47.510Z,9.25
2022-09-21T23:29:15.526Z,9.26
2022-09-21T23:31:45.558Z,9.25
2022-09-21T23:34:13.652Z,9.24
2022-09-21T23:36:41.641Z,9.21
2022-09-21T23:39:12.057Z,9.13
2022-09-21T23:41:39.578Z,9.11
2022-09-21T23:44:06.829Z,9.10
2022-09-21T23:46:37.098Z,9.10
2022-09-21T23:49:05.031Z,9.07
2022-09-21T23:51:32.009Z,9.05
2022-09-21T23:53:59.759Z,8.99
2022-09-21T23:56:28.406Z,9.06
2022-09-21T23:58:56.001Z,9.06
